Time;durP1;ratioP1;P1;durP2;ratioP2;P2;SDS_P1;SDS_P2;PMS_P1;PMS_P2;Temp;Humidity;BMP_temperature;BMP_pressure;BME280_temperature;BME280_humidity;BME280_pressure;Samples;Min_cycle;Max_cycle;Signal;HPM_P1;HPM_P2
2024/01/18 00:01:51;;;;;;;0.10;0.10;;;;;;;;;;5061951;28;20060;-79
2024/01/18 00:04:17;;;;;;;0.10;0.10;;;;;;;;;;5060527;28;20516;-81
2024/01/18 00:06:44;;;;;;;0.10;0.10;;;;;;;;;;5032052;28;20057;-79
2024/01/18 00:09:11;;;;;;;0.10;0.10;;;;;;;;;;5056118;28;20052;-79
2024/01/18 00:11:37;;;;;;;0.10;0.10;;;;;;;;;;5065576;28;20086;-79
2024/01/18 00:14:04;;;;;;;0.10;0.10;;;;;;;;;;5061590;28;20057;-80
2024/01/18 00:16:32;;;;;;;0.35;0.30;;;;;;;;;;5034137;28;20057;-80
2024/01/18 00:18:59;;;;;;;0.15;0.15;;;;;;;;;;5064549;28;20080;-81
2024/01/18 00:21:26;;;;;;;0.10;0.10;;;;;;;;;;5062696;28;20140;-80
2024/01/18 00:23:54;;;;;;;0.00;0.00;;;;;;;;;;5063800;28;20096;-80
2024/01/18 00:26:20;;;;;;;0.10;0.10;;;;;;;;;;5054434;28;20057;-80
2024/01/18 00:28:47;;;;;;;0.10;0.10;;;;;;;;;;5059611;28;20065;-80
2024/01/18 00:31:13;;;;;;;0.10;0.10;;;;;;;;;;5066846;28;20322;-81
2024/01/18 00:33:39;;;;;;;0.10;0.10;;;;;;;;;;5066160;28;20037;-81
2024/01/18 00:36:06;;;;;;;0.10;0.10;;;;;;;;;;5063054;28;20060;-81
2024/01/18 00:38:32;;;;;;;0.00;0.00;;;;;;;;;;5070143;28;20052;-80
2024/01/18 00:40:59;;;;;;;0.10;0.10;;;;;;;;;;5045395;28;20111;-80
2024/01/18 00:43:25;;;;;;;0.25;0.25;;;;;;;;;;5051229;28;20049;-80
2024/01/18 00:45:52;;;;;;;3.03;2.92;;;;;;;;;;5044850;28;20037;-80
2024/01/18 00:48:18;;;;;;;0.10;0.10;;;;;;;;;;5059863;28;20123;-79
2024/01/18 00:50:45;;;;;;;0.00;0.00;;;;;;;;;;5053396;28;20061;-79
2024/01/18 00:53:11;;;;;;;0.10;0.10;;;;;;;;;;5047689;28;20084;-79
2024/01/18 00:55:37;;;;;;;0.10;0.10;;;;;;;;;;5136037;22;20061;-78
2024/01/18 00:58:04;;;;;;;0.00;0.00;;;;;;;;;;5067872;28;20645;-77
2024/01/18 01:00:30;;;;;;;0.10;0.10;;;;;;;;;;5061825;28;20916;-78
2024/01/18 01:02:57;;;;;;;0.05;0.05;;;;;;;;;;5044667;28;20041;-78
2024/01/18 01:05:23;;;;;;;0.03;0.03;;;;;;;;;;5045253;28;20570;-77
2024/01/18 01:07:50;;;;;;;0.10;0.10;;;;;;;;;;5050002;28;20054;-77
2024/01/18 01:10:19;;;;;;;0.10;0.10;;;;;;;;;;5052606;28;20547;-78
2024/01/18 01:12:45;;;;;;;0.10;0.10;;;;;;;;;;5050670;28;20060;-78
2024/01/18 01:15:12;;;;;;;0.10;0.10;;;;;;;;;;5051769;28;20045;-78
2024/01/18 01:17:38;;;;;;;0.10;0.10;;;;;;;;;;5049194;28;20049;-75
2024/01/18 01:20:05;;;;;;;0.57;0.57;;;;;;;;;;5044141;28;20061;-77
2024/01/18 01:22:32;;;;;;;0.10;0.10;;;;;;;;;;5043826;28;20065;-78
2024/01/18 01:24:59;;;;;;;0.10;0.10;;;;;;;;;;5045307;28;20254;-78
2024/01/18 01:27:25;;;;;;;0.10;0.10;;;;;;;;;;5030251;28;20054;-78
2024/01/18 01:29:52;;;;;;;0.10;0.10;;;;;;;;;;5047123;28;20050;-78
2024/01/18 01:32:18;;;;;;;0.10;0.10;;;;;;;;;;5046983;28;20053;-78
2024/01/18 01:34:45;;;;;;;0.10;0.10;;;;;;;;;;5043151;28;20107;-77
2024/01/18 01:37:13;;;;;;;0.10;0.10;;;;;;;;;;5047957;28;20625;-77
2024/01/18 01:39:40;;;;;;;0.00;0.00;;;;;;;;;;5050459;28;20049;-77
2024/01/18 01:42:07;;;;;;;0.10;0.10;;;;;;;;;;5051637;28;20503;-78
2024/01/18 01:44:33;;;;;;;0.10;0.10;;;;;;;;;;5034230;28;20136;-78
2024/01/18 01:47:00;;;;;;;0.03;0.03;;;;;;;;;;5034420;28;20076;-77
2024/01/18 01:49:26;;;;;;;0.10;0.10;;;;;;;;;;5051145;28;20049;-77
2024/01/18 01:51:53;;;;;;;0.10;0.10;;;;;;;;;;5033951;28;20064;-77
2024/01/18 01:54:20;;;;;;;0.10;0.10;;;;;;;;;;5047097;28;20065;-77
2024/01/18 01:56:49;;;;;;;0.00;0.00;;;;;;;;;;5056120;28;20053;-77
2024/01/18 01:59:16;;;;;;;0.10;0.10;;;;;;;;;;5051201;28;20057;-77
2024/01/18 02:01:43;;;;;;;0.10;0.10;;;;;;;;;;5052353;28;20057;-78
2024/01/18 02:04:09;;;;;;;0.10;0.10;;;;;;;;;;5053242;28;20107;-77
2024/01/18 02:06:37;;;;;;;0.10;0.10;;;;;;;;;;5052555;28;20054;-78
2024/01/18 02:09:03;;;;;;;0.00;0.00;;;;;;;;;;5052424;28;20056;-76
2024/01/18 02:11:30;;;;;;;0.10;0.10;;;;;;;;;;5052010;28;20136;-78
2024/01/18 02:13:56;;;;;;;0.32;0.32;;;;;;;;;;5052148;28;20064;-78
2024/01/18 02:16:23;;;;;;;0.10;0.10;;;;;;;;;;5052642;28;20033;-78
2024/01/18 02:18:51;;;;;;;0.00;0.00;;;;;;;;;;5050051;28;20079;-76
2024/01/18 02:21:17;;;;;;;0.10;0.10;;;;;;;;;;5055066;28;20049;-78
2024/01/18 02:23:54;;;;;;;0.10;0.10;;;;;;;;;;5053750;28;20054;-78
2024/01/18 02:26:20;;;;;;;0.00;0.00;;;;;;;;;;5054539;28;20115;-78
2024/01/18 02:28:56;;;;;;;0.10;0.10;;;;;;;;;;5050782;28;20058;-75
2024/01/18 02:31:23;;;;;;;0.00;0.00;;;;;;;;;;5052392;28;20105;-78
2024/01/18 02:33:49;;;;;;;0.10;0.10;;;;;;;;;;5052595;28;20085;-77
2024/01/18 02:36:16;;;;;;;0.00;0.00;;;;;;;;;;5050102;28;20132;-77
2024/01/18 02:38:45;;;;;;;0.10;0.10;;;;;;;;;;5051010;28;20060;-78
2024/01/18 02:41:11;;;;;;;0.10;0.10;;;;;;;;;;5026652;28;20841;-76
2024/01/18 02:43:38;;;;;;;0.00;0.00;;;;;;;;;;5052013;28;20804;-78
2024/01/18 02:46:04;;;;;;;0.00;0.00;;;;;;;;;;5034542;28;20132;-78
2024/01/18 02:48:31;;;;;;;0.10;0.10;;;;;;;;;;5055564;28;20826;-78
2024/01/18 02:50:57;;;;;;;0.10;0.10;;;;;;;;;;5051133;28;20064;-78
2024/01/18 02:53:24;;;;;;;0.00;0.00;;;;;;;;;;5051669;28;20562;-77
2024/01/18 02:55:50;;;;;;;2.83;2.63;;;;;;;;;;5047851;28;20053;-75
2024/01/18 02:58:17;;;;;;;0.00;0.00;;;;;;;;;;5051581;28;20061;-76
2024/01/18 03:00:43;;;;;;;0.00;0.00;;;;;;;;;;5050140;28;20049;-78
2024/01/18 03:03:10;;;;;;;0.00;0.00;;;;;;;;;;5050342;28;20054;-78
2024/01/18 03:05:36;;;;;;;0.25;0.25;;;;;;;;;;5050496;28;20139;-78
2024/01/18 03:08:03;;;;;;;0.10;0.10;;;;;;;;;;5049745;28;20105;-77
2024/01/18 03:10:29;;;;;;;0.00;0.00;;;;;;;;;;5055629;28;20073;-78
2024/01/18 03:12:56;;;;;;;0.65;0.65;;;;;;;;;;5052407;28;20899;-77
2024/01/18 03:15:23;;;;;;;0.10;0.10;;;;;;;;;;5032098;28;20607;-76
2024/01/18 03:17:55;;;;;;;0.00;0.00;;;;;;;;;;5050483;28;20050;-78
2024/01/18 03:20:22;;;;;;;0.10;0.10;;;;;;;;;;5053450;28;20806;-76
2024/01/18 03:22:48;;;;;;;0.10;0.10;;;;;;;;;;5049776;28;20053;-77
2024/01/18 03:25:14;;;;;;;0.10;0.10;;;;;;;;;;5050256;28;20057;-77
2024/01/18 03:27:41;;;;;;;0.00;0.00;;;;;;;;;;5047936;28;20057;-77
2024/01/18 03:30:07;;;;;;;0.00;0.00;;;;;;;;;;5054995;28;20486;-77
2024/01/18 03:32:34;;;;;;;0.10;0.10;;;;;;;;;;5049857;28;20088;-77
2024/01/18 03:35:00;;;;;;;0.10;0.10;;;;;;;;;;5049923;28;20094;-76
2024/01/18 03:37:27;;;;;;;0.03;0.03;;;;;;;;;;5047368;28;20055;-76
2024/01/18 03:39:53;;;;;;;0.00;0.00;;;;;;;;;;5030196;28;20116;-77
2024/01/18 03:42:20;;;;;;;0.00;0.00;;;;;;;;;;5048919;28;20054;-78
2024/01/18 03:44:46;;;;;;;0.03;0.03;;;;;;;;;;5045050;28;20065;-78
2024/01/18 03:47:12;;;;;;;0.10;0.10;;;;;;;;;;5042804;28;20057;-75
2024/01/18 03:49:41;;;;;;;0.00;0.00;;;;;;;;;;5040033;28;20068;-77
2024/01/18 03:52:07;;;;;;;0.10;0.10;;;;;;;;;;5041408;28;20049;-78
2024/01/18 03:54:33;;;;;;;0.32;0.32;;;;;;;;;;5048982;28;20073;-77
2024/01/18 03:57:00;;;;;;;0.00;0.00;;;;;;;;;;5046408;28;20139;-76
2024/01/18 03:59:26;;;;;;;0.00;0.00;;;;;;;;;;5049949;28;20113;-75
2024/01/18 04:01:55;;;;;;;0.52;0.52;;;;;;;;;;5030982;28;20520;-77
2024/01/18 04:04:21;;;;;;;0.00;0.00;;;;;;;;;;5048797;28;20073;-77
2024/01/18 04:06:49;;;;;;;0.00;0.00;;;;;;;;;;5048365;28;20084;-77
2024/01/18 04:09:15;;;;;;;0.00;0.00;;;;;;;;;;5048673;28;20132;-77
2024/01/18 04:11:42;;;;;;;0.08;0.08;;;;;;;;;;5046780;28;20056;-76
2024/01/18 04:14:08;;;;;;;0.00;0.00;;;;;;;;;;5050423;28;20061;-78
2024/01/18 04:16:35;;;;;;;0.00;0.00;;;;;;;;;;5049724;28;20050;-77
2024/01/18 04:19:01;;;;;;;0.00;0.00;;;;;;;;;;5049623;28;20053;-77
2024/01/18 04:21:29;;;;;;;0.00;0.00;;;;;;;;;;5032943;28;20054;-77
2024/01/18 04:23:56;;;;;;;0.00;0.00;;;;;;;;;;5049331;28;20085;-76
2024/01/18 04:26:23;;;;;;;0.00;0.00;;;;;;;;;;5049235;28;20060;-77
2024/01/18 04:28:49;;;;;;;0.00;0.00;;;;;;;;;;5031986;28;20049;-78
2024/01/18 04:31:16;;;;;;;0.00;0.00;;;;;;;;;;5049937;28;20053;-78
2024/01/18 04:33:42;;;;;;;0.05;0.05;;;;;;;;;;5049309;28;20057;-75
2024/01/18 04:36:08;;;;;;;0.00;0.00;;;;;;;;;;5049325;28;20046;-76
2024/01/18 04:38:35;;;;;;;1.60;1.55;;;;;;;;;;5054612;28;20052;-76
2024/01/18 04:41:01;;;;;;;0.10;0.10;;;;;;;;;;5046331;28;20136;-76
2024/01/18 04:43:27;;;;;;;0.10;0.10;;;;;;;;;;5045531;28;20081;-76
2024/01/18 04:45:54;;;;;;;0.00;0.00;;;;;;;;;;5045353;28;20508;-76
2024/01/18 04:48:20;;;;;;;0.05;0.05;;;;;;;;;;5046825;28;20917;-77
2024/01/18 04:50:47;;;;;;;0.00;0.00;;;;;;;;;;5046608;28;20812;-76
2024/01/18 04:53:14;;;;;;;0.00;0.00;;;;;;;;;;5047442;28;20501;-75
2024/01/18 04:55:40;;;;;;;0.10;0.10;;;;;;;;;;5046713;28;20082;-75
2024/01/18 04:58:08;;;;;;;0.00;0.00;;;;;;;;;;5029196;28;20107;-76
2024/01/18 05:00:34;;;;;;;0.00;0.00;;;;;;;;;;5045327;28;20077;-76
2024/01/18 05:03:01;;;;;;;0.00;0.00;;;;;;;;;;5047225;28;20053;-76
2024/01/18 05:05:27;;;;;;;0.00;0.00;;;;;;;;;;5044255;28;20108;-76
2024/01/18 05:07:54;;;;;;;0.68;0.68;;;;;;;;;;5039858;28;20526;-76
2024/01/18 05:10:20;;;;;;;0.00;0.00;;;;;;;;;;5048077;28;20563;-76
2024/01/18 05:12:48;;;;;;;0.00;0.00;;;;;;;;;;5048030;28;20054;-76
2024/01/18 05:15:15;;;;;;;0.00;0.00;;;;;;;;;;5033636;28;20049;-76
2024/01/18 05:17:43;;;;;;;0.00;0.00;;;;;;;;;;5052025;28;20128;-76
2024/01/18 05:20:10;;;;;;;0.00;0.00;;;;;;;;;;5053195;28;20062;-77
2024/01/18 05:22:36;;;;;;;0.03;0.03;;;;;;;;;;5052182;28;20053;-77
2024/01/18 05:25:03;;;;;;;0.00;0.00;;;;;;;;;;5051802;28;21025;-77
2024/01/18 05:27:29;;;;;;;0.10;0.10;;;;;;;;;;5051434;28;20072;-76
2024/01/18 05:29:57;;;;;;;0.00;0.00;;;;;;;;;;5033630;28;20057;-77
2024/01/18 05:32:23;;;;;;;0.00;0.00;;;;;;;;;;5050753;28;21001;-77
2024/01/18 05:34:50;;;;;;;0.00;0.00;;;;;;;;;;5047310;28;20054;-75
2024/01/18 05:37:17;;;;;;;0.00;0.00;;;;;;;;;;5049303;28;20053;-76
2024/01/18 05:39:44;;;;;;;0.00;0.00;;;;;;;;;;5053454;28;20064;-74
2024/01/18 05:42:10;;;;;;;0.10;0.10;;;;;;;;;;5045433;28;20057;-75
2024/01/18 05:44:37;;;;;;;0.00;0.00;;;;;;;;;;5049319;28;20476;-77
2024/01/18 05:47:03;;;;;;;0.10;0.10;;;;;;;;;;5049816;28;20054;-77
2024/01/18 05:49:29;;;;;;;0.08;0.08;;;;;;;;;;5050368;28;20049;-77
2024/01/18 05:51:56;;;;;;;0.03;0.03;;;;;;;;;;5044707;28;20056;-77
2024/01/18 05:54:22;;;;;;;0.00;0.00;;;;;;;;;;5049758;28;20053;-77
2024/01/18 05:56:49;;;;;;;0.00;0.00;;;;;;;;;;5047971;28;20053;-76
2024/01/18 05:59:16;;;;;;;0.00;0.00;;;;;;;;;;5049221;28;20058;-77
2024/01/18 06:01:42;;;;;;;0.00;0.00;;;;;;;;;;5049764;28;20095;-78
2024/01/18 06:04:09;;;;;;;0.10;0.10;;;;;;;;;;5045367;28;20053;-77
2024/01/18 06:06:35;;;;;;;0.10;0.10;;;;;;;;;;5049459;28;20474;-77
2024/01/18 06:09:02;;;;;;;0.00;0.00;;;;;;;;;;5030471;28;20065;-75
2024/01/18 06:11:28;;;;;;;0.10;0.10;;;;;;;;;;5049231;28;20063;-77
2024/01/18 06:13:55;;;;;;;0.10;0.10;;;;;;;;;;5047973;28;20049;-77
2024/01/18 06:16:21;;;;;;;0.10;0.10;;;;;;;;;;5043535;28;20127;-77
2024/01/18 06:18:47;;;;;;;0.10;0.10;;;;;;;;;;5046307;28;20081;-77
2024/01/18 06:21:14;;;;;;;0.00;0.00;;;;;;;;;;5049107;28;20054;-77
2024/01/18 06:23:40;;;;;;;0.10;0.10;;;;;;;;;;5049475;28;20056;-76
2024/01/18 06:26:08;;;;;;;0.10;0.10;;;;;;;;;;5045141;28;20136;-75
2024/01/18 06:28:35;;;;;;;0.00;0.00;;;;;;;;;;5054103;28;20053;-78
2024/01/18 06:31:02;;;;;;;0.00;0.00;;;;;;;;;;5048460;28;20053;-75
2024/01/18 06:33:28;;;;;;;0.00;0.00;;;;;;;;;;5049517;28;20103;-77
2024/01/18 06:35:55;;;;;;;0.00;0.00;;;;;;;;;;5047912;28;20137;-75
2024/01/18 06:38:21;;;;;;;0.10;0.10;;;;;;;;;;5045709;28;20059;-77
2024/01/18 06:40:47;;;;;;;0.10;0.10;;;;;;;;;;5044513;28;20107;-77
2024/01/18 06:43:14;;;;;;;0.00;0.00;;;;;;;;;;5037283;28;20057;-76
2024/01/18 06:45:41;;;;;;;0.00;0.00;;;;;;;;;;5040223;28;20588;-76
2024/01/18 06:48:07;;;;;;;0.03;0.03;;;;;;;;;;5048339;28;20054;-77
2024/01/18 06:50:37;;;;;;;0.10;0.10;;;;;;;;;;5041396;28;20612;-77
2024/01/18 06:53:03;;;;;;;0.00;0.00;;;;;;;;;;5028228;28;20517;-77
2024/01/18 06:55:30;;;;;;;0.00;0.00;;;;;;;;;;5049127;28;20103;-77
2024/01/18 06:58:02;;;;;;;0.00;0.00;;;;;;;;;;5212637;22;20053;-77
2024/01/18 07:00:30;;;;;;;0.00;0.00;;;;;;;;;;5053313;28;20053;-78
2024/01/18 07:02:57;;;;;;;0.00;0.00;;;;;;;;;;5036824;28;20053;-79
2024/01/18 07:05:24;;;;;;;0.00;0.00;;;;;;;;;;5047439;28;20523;-80
2024/01/18 07:07:50;;;;;;;0.10;0.10;;;;;;;;;;5039325;28;20052;-79
2024/01/18 07:10:23;;;;;;;0.03;0.03;;;;;;;;;;5054062;28;20056;-78
2024/01/18 07:12:50;;;;;;;0.10;0.10;;;;;;;;;;5059472;28;20596;-79
2024/01/18 07:15:16;;;;;;;0.47;0.47;;;;;;;;;;5065637;28;20507;-80
2024/01/18 07:17:43;;;;;;;0.00;0.00;;;;;;;;;;5056691;28;20053;-79
2024/01/18 07:20:10;;;;;;;0.10;0.10;;;;;;;;;;5060609;28;20042;-80
2024/01/18 07:22:37;;;;;;;0.00;0.00;;;;;;;;;;5061135;28;20045;-81
2024/01/18 07:25:09;;;;;;;0.10;0.10;;;;;;;;;;5058528;28;20507;-83
2024/01/18 07:27:48;;;;;;;0.00;0.00;;;;;;;;;;5035068;28;20046;-80
2024/01/18 07:30:34;;;;;;;0.10;0.10;;;;;;;;;;5048312;28;20170;-80
2024/01/18 07:33:31;;;;;;;0.00;0.00;;;;;;;;;;5053583;28;20045;-81
2024/01/18 07:36:45;;;;;;;0.10;0.10;;;;;;;;;;4981214;28;20114;-80
2024/01/18 07:39:29;;;;;;;1.08;1.08;;;;;;;;;;5027308;28;20113;-80
2024/01/18 07:42:13;;;;;;;0.00;0.00;;;;;;;;;;5044835;28;20038;-79
2024/01/18 07:44:59;;;;;;;0.00;0.00;;;;;;;;;;5027504;28;20049;-81
2024/01/18 07:47:40;;;;;;;0.00;0.00;;;;;;;;;;5070505;28;20065;-81
2024/01/18 07:50:16;;;;;;;0.00;0.00;;;;;;;;;;5074006;28;20057;-79
2024/01/18 07:53:00;;;;;;;0.10;0.10;;;;;;;;;;5043214;28;20061;-81
2024/01/18 07:55:32;;;;;;;0.10;0.10;;;;;;;;;;5061139;28;20044;-80
2024/01/18 07:57:59;;;;;;;0.10;0.10;;;;;;;;;;5045366;28;20057;-81
2024/01/18 08:00:25;;;;;;;0.00;0.00;;;;;;;;;;5053484;28;20057;-80
2024/01/18 08:02:52;;;;;;;0.00;0.00;;;;;;;;;;5064025;28;20060;-81
2024/01/18 08:05:18;;;;;;;0.00;0.00;;;;;;;;;;5059381;28;20930;-79
2024/01/18 08:07:45;;;;;;;0.00;0.00;;;;;;;;;;5070615;28;20111;-81
2024/01/18 08:10:11;;;;;;;0.00;0.00;;;;;;;;;;5069048;28;20096;-81
2024/01/18 08:12:38;;;;;;;1.55;1.45;;;;;;;;;;5042401;28;20054;-80
2024/01/18 08:15:05;;;;;;;0.30;0.30;;;;;;;;;;5043961;28;20145;-80
2024/01/18 08:17:32;;;;;;;0.00;0.00;;;;;;;;;;5032812;28;20929;-81
2024/01/18 08:19:58;;;;;;;0.00;0.00;;;;;;;;;;5058046;28;20065;-80
2024/01/18 08:22:25;;;;;;;0.00;0.00;;;;;;;;;;5050473;28;20041;-81
2024/01/18 08:24:52;;;;;;;0.00;0.00;;;;;;;;;;5050555;28;20053;-82
2024/01/18 08:27:20;;;;;;;0.00;0.00;;;;;;;;;;5059095;28;20053;-81
2024/01/18 08:29:47;;;;;;;0.00;0.00;;;;;;;;;;5057670;28;20059;-81
2024/01/18 08:32:13;;;;;;;0.10;0.10;;;;;;;;;;5050325;28;20374;-79
2024/01/18 08:34:40;;;;;;;0.00;0.00;;;;;;;;;;5060006;28;20103;-81
2024/01/18 08:37:10;;;;;;;0.00;0.00;;;;;;;;;;5058842;28;20060;-82
2024/01/18 08:39:38;;;;;;;0.52;0.52;;;;;;;;;;5055960;28;20798;-79
2024/01/18 08:42:05;;;;;;;0.00;0.00;;;;;;;;;;5044520;28;20514;-81
2024/01/18 08:44:32;;;;;;;0.00;0.00;;;;;;;;;;5048776;28;20045;-81
2024/01/18 08:46:58;;;;;;;0.00;0.00;;;;;;;;;;5054667;28;20060;-81
2024/01/18 08:49:25;;;;;;;0.00;0.00;;;;;;;;;;5054253;28;20602;-80
2024/01/18 08:51:52;;;;;;;0.00;0.00;;;;;;;;;;5059568;28;20053;-81
2024/01/18 08:54:20;;;;;;;0.05;0.05;;;;;;;;;;5038604;28;20064;-79
2024/01/18 08:56:47;;;;;;;0.00;0.00;;;;;;;;;;5062784;28;20044;-80
2024/01/18 08:59:14;;;;;;;0.03;0.03;;;;;;;;;;5040440;28;20053;-81
2024/01/18 09:01:40;;;;;;;0.00;0.00;;;;;;;;;;5071088;28;20053;-81
2024/01/18 09:04:07;;;;;;;0.00;0.00;;;;;;;;;;5052896;28;20976;-79
2024/01/18 09:06:34;;;;;;;0.10;0.10;;;;;;;;;;5051972;28;20053;-80
2024/01/18 09:09:01;;;;;;;0.00;0.00;;;;;;;;;;5039650;28;20053;-80
2024/01/18 09:11:28;;;;;;;0.00;0.00;;;;;;;;;;5047979;28;20081;-79
2024/01/18 09:13:55;;;;;;;0.00;0.00;;;;;;;;;;5048098;28;20721;-81
2024/01/18 09:16:21;;;;;;;0.10;0.10;;;;;;;;;;5033623;28;20050;-81
2024/01/18 09:18:47;;;;;;;0.00;0.00;;;;;;;;;;5043142;28;20046;-80
2024/01/18 09:21:39;;;;;;;0.10;0.10;;;;;;;;;;5047048;28;20958;-79
2024/01/18 09:24:05;;;;;;;0.08;0.08;;;;;;;;;;5051761;28;20475;-80
2024/01/18 09:26:32;;;;;;;0.00;0.00;;;;;;;;;;5049812;28;20050;-81
2024/01/18 09:28:58;;;;;;;0.10;0.10;;;;;;;;;;5048897;28;20098;-79
2024/01/18 09:31:25;;;;;;;0.10;0.10;;;;;;;;;;5053208;28;21768;-78
2024/01/18 09:34:06;;;;;;;0.00;0.00;;;;;;;;;;5047494;28;20882;-81
2024/01/18 09:36:33;;;;;;;0.00;0.00;;;;;;;;;;5054945;28;20054;-82
2024/01/18 09:38:59;;;;;;;0.00;0.00;;;;;;;;;;5045472;28;20049;-81
2024/01/18 09:41:26;;;;;;;0.00;0.00;;;;;;;;;;5048059;28;20470;-78
2024/01/18 09:43:56;;;;;;;0.10;0.10;;;;;;;;;;5045477;28;20053;-81
2024/01/18 09:46:23;;;;;;;0.00;0.00;;;;;;;;;;5047887;28;20057;-82
2024/01/18 09:48:49;;;;;;;0.00;0.00;;;;;;;;;;5045003;28;20062;-81
2024/01/18 09:51:19;;;;;;;0.00;0.00;;;;;;;;;;5043072;28;20137;-82
2024/01/18 09:53:48;;;;;;;0.00;0.00;;;;;;;;;;5052487;28;20515;-80
2024/01/18 09:56:20;;;;;;;1.00;1.00;;;;;;;;;;5053424;28;20088;-79
2024/01/18 09:58:47;;;;;;;0.00;0.00;;;;;;;;;;5039943;28;20053;-80
2024/01/18 10:01:18;;;;;;;0.03;0.03;;;;;;;;;;5053472;28;20131;-79
2024/01/18 10:03:45;;;;;;;0.08;0.08;;;;;;;;;;5051724;28;20488;-79
2024/01/18 10:06:12;;;;;;;0.00;0.00;;;;;;;;;;5049978;28;20064;-79
2024/01/18 10:08:39;;;;;;;0.00;0.00;;;;;;;;;;5053240;28;20504;-79
2024/01/18 10:11:06;;;;;;;0.10;0.10;;;;;;;;;;5053264;28;20507;-81
2024/01/18 10:13:50;;;;;;;0.08;0.08;;;;;;;;;;5052991;28;20084;-82
2024/01/18 10:16:33;;;;;;;0.00;0.00;;;;;;;;;;5052725;28;20057;-82
2024/01/18 10:19:00;;;;;;;0.00;0.00;;;;;;;;;;5053060;28;20061;-80
2024/01/18 10:21:29;;;;;;;0.00;0.00;;;;;;;;;;5053340;28;20057;-81
2024/01/18 10:23:57;;;;;;;0.10;0.10;;;;;;;;;;5051376;28;20541;-81
2024/01/18 10:26:27;;;;;;;0.00;0.00;;;;;;;;;;5051711;28;20061;-80
2024/01/18 10:28:53;;;;;;;0.10;0.10;;;;;;;;;;5048108;28;20521;-81
2024/01/18 10:31:19;;;;;;;0.10;0.10;;;;;;;;;;5048848;28;20530;-80
2024/01/18 10:33:49;;;;;;;0.00;0.00;;;;;;;;;;5055489;28;20053;-80
2024/01/18 10:36:15;;;;;;;0.10;0.10;;;;;;;;;;5053554;28;20038;-80
2024/01/18 10:38:42;;;;;;;0.10;0.10;;;;;;;;;;5057725;28;20112;-80
2024/01/18 10:41:08;;;;;;;0.05;0.05;;;;;;;;;;5041675;28;20077;-79
2024/01/18 10:43:35;;;;;;;0.00;0.00;;;;;;;;;;5070679;28;20058;-80
2024/01/18 10:46:02;;;;;;;0.10;0.10;;;;;;;;;;5058439;28;20042;-79
2024/01/18 10:48:32;;;;;;;0.10;0.10;;;;;;;;;;5058488;28;20054;-79
2024/01/18 10:51:01;;;;;;;0.10;0.10;;;;;;;;;;5058654;28;20067;-79
2024/01/18 10:53:33;;;;;;;0.00;0.00;;;;;;;;;;5059097;28;20100;-78
2024/01/18 10:56:01;;;;;;;0.10;0.10;;;;;;;;;;5048820;28;20060;-78
2024/01/18 10:58:27;;;;;;;0.00;0.00;;;;;;;;;;5057036;28;20053;-79
2024/01/18 11:00:54;;;;;;;0.10;0.10;;;;;;;;;;5052639;28;20096;-82
2024/01/18 11:03:21;;;;;;;0.05;0.05;;;;;;;;;;5042280;28;20052;-77
2024/01/18 11:05:56;;;;;;;0.00;0.00;;;;;;;;;;5042031;28;20519;-76
2024/01/18 11:08:23;;;;;;;0.10;0.10;;;;;;;;;;5039672;28;20060;-77
2024/01/18 11:10:49;;;;;;;0.10;0.10;;;;;;;;;;5046595;28;20096;-77
2024/01/18 11:13:16;;;;;;;1.70;0.73;;;;;;;;;;5046710;28;20538;-77
2024/01/18 11:15:44;;;;;;;0.10;0.10;;;;;;;;;;5037362;28;20614;-77
2024/01/18 11:18:12;;;;;;;0.10;0.10;;;;;;;;;;5045154;28;20585;-77
2024/01/18 11:21:06;;;;;;;0.10;0.10;;;;;;;;;;5042196;28;20054;-77
2024/01/18 11:23:37;;;;;;;0.10;0.10;;;;;;;;;;5027697;28;20511;-77
2024/01/18 11:26:07;;;;;;;0.10;0.10;;;;;;;;;;5046143;28;20608;-77
2024/01/18 11:28:35;;;;;;;0.10;0.10;;;;;;;;;;5044908;28;20053;-77
2024/01/18 11:31:01;;;;;;;0.10;0.10;;;;;;;;;;5044903;28;20053;-77
2024/01/18 11:33:28;;;;;;;0.10;0.10;;;;;;;;;;5045127;28;20140;-78
2024/01/18 11:35:56;;;;;;;0.10;0.10;;;;;;;;;;5038355;28;20578;-78
2024/01/18 11:38:24;;;;;;;0.10;0.10;;;;;;;;;;5043875;28;20053;-77
2024/01/18 11:41:11;;;;;;;0.00;0.00;;;;;;;;;;5041786;28;20959;-77
2024/01/18 11:43:57;;;;;;;0.10;0.10;;;;;;;;;;5014391;28;21644;-77
2024/01/18 11:46:33;;;;;;;0.10;0.10;;;;;;;;;;5042500;28;20053;-77
2024/01/18 11:49:00;;;;;;;0.10;0.10;;;;;;;;;;5037592;28;20057;-77
2024/01/18 11:51:28;;;;;;;0.10;0.10;;;;;;;;;;5049549;28;20080;-77
2024/01/18 11:53:54;;;;;;;0.10;0.10;;;;;;;;;;5052788;28;20088;-77
2024/01/18 11:56:22;;;;;;;0.10;0.10;;;;;;;;;;5052427;28;20061;-77
2024/01/18 11:58:53;;;;;;;0.10;0.10;;;;;;;;;;5050383;28;20976;-78
2024/01/18 12:01:19;;;;;;;0.10;0.10;;;;;;;;;;5054603;28;20065;-77
2024/01/18 12:03:49;;;;;;;0.10;0.10;;;;;;;;;;5050707;28;20873;-76
2024/01/18 12:06:16;;;;;;;0.10;0.10;;;;;;;;;;5048829;28;20053;-77
2024/01/18 12:08:43;;;;;;;0.10;0.10;;;;;;;;;;5053660;28;20951;-77
2024/01/18 12:11:10;;;;;;;0.10;0.10;;;;;;;;;;5054773;28;20033;-77
2024/01/18 12:13:37;;;;;;;0.10;0.10;;;;;;;;;;5052680;28;20038;-77
2024/01/18 12:16:07;;;;;;;0.10;0.10;;;;;;;;;;5051123;28;20060;-76
2024/01/18 12:18:40;;;;;;;0.20;0.20;;;;;;;;;;5050243;28;20045;-78
2024/01/18 12:21:06;;;;;;;0.10;0.10;;;;;;;;;;5053945;28;20113;-77
2024/01/18 12:23:33;;;;;;;0.10;0.10;;;;;;;;;;5057359;28;20054;-78
2024/01/18 12:26:00;;;;;;;0.10;0.10;;;;;;;;;;5055477;28;20064;-77
2024/01/18 12:28:26;;;;;;;0.10;0.10;;;;;;;;;;5049531;28;20057;-77
2024/01/18 12:30:58;;;;;;;0.43;0.43;;;;;;;;;;5052822;28;20037;-77
2024/01/18 12:33:24;;;;;;;0.10;0.10;;;;;;;;;;5057050;28;20081;-78
2024/01/18 12:35:51;;;;;;;0.10;0.10;;;;;;;;;;5050442;28;20053;-77
2024/01/18 12:38:17;;;;;;;0.10;0.10;;;;;;;;;;5052789;28;20913;-78
2024/01/18 12:40:44;;;;;;;0.10;0.10;;;;;;;;;;5053083;28;20054;-77
2024/01/18 12:43:10;;;;;;;0.10;0.10;;;;;;;;;;5048556;28;20038;-78
2024/01/18 12:45:37;;;;;;;0.10;0.10;;;;;;;;;;5044539;28;20068;-77
2024/01/18 12:48:04;;;;;;;0.10;0.10;;;;;;;;;;5041168;28;20068;-78
2024/01/18 12:50:31;;;;;;;0.00;0.00;;;;;;;;;;5052162;28;20056;-77
2024/01/18 12:52:59;;;;;;;0.10;0.10;;;;;;;;;;5054865;28;20053;-78
2024/01/18 12:55:30;;;;;;;0.30;0.30;;;;;;;;;;5054824;28;20080;-77
2024/01/18 12:57:58;;;;;;;0.10;0.10;;;;;;;;;;5035020;28;20045;-77
2024/01/18 13:00:24;;;;;;;0.10;0.10;;;;;;;;;;5054095;28;20057;-77
2024/01/18 13:02:52;;;;;;;0.10;0.10;;;;;;;;;;5123848;22;20056;-80
2024/01/18 13:05:18;;;;;;;0.10;0.10;;;;;;;;;;5041378;28;20140;-81
2024/01/18 13:07:45;;;;;;;0.10;0.10;;;;;;;;;;5041860;28;20192;-79
2024/01/18 13:10:13;;;;;;;0.10;0.10;;;;;;;;;;5053254;28;20045;-80
2024/01/18 13:12:39;;;;;;;0.10;0.10;;;;;;;;;;5045145;28;20140;-80
2024/01/18 13:15:06;;;;;;;0.10;0.10;;;;;;;;;;5046319;28;20053;-79
2024/01/18 13:17:32;;;;;;;0.10;0.10;;;;;;;;;;5053847;28;20124;-79
2024/01/18 13:19:59;;;;;;;0.10;0.10;;;;;;;;;;5038455;28;20140;-79
2024/01/18 13:22:26;;;;;;;0.10;0.10;;;;;;;;;;5029919;28;20070;-79
2024/01/18 13:24:52;;;;;;;0.10;0.10;;;;;;;;;;5041766;28;20112;-80
2024/01/18 13:27:19;;;;;;;0.10;0.10;;;;;;;;;;5031672;28;20057;-80
2024/01/18 13:29:46;;;;;;;0.10;0.10;;;;;;;;;;5054182;28;20084;-79
2024/01/18 13:32:12;;;;;;;0.10;0.10;;;;;;;;;;5051631;28;20065;-80
2024/01/18 13:34:40;;;;;;;0.10;0.10;;;;;;;;;;5032886;28;20131;-79
2024/01/18 13:37:06;;;;;;;0.10;0.10;;;;;;;;;;5055683;28;20049;-80
2024/01/18 13:39:41;;;;;;;0.10;0.10;;;;;;;;;;5051848;28;20510;-79
2024/01/18 13:42:07;;;;;;;0.10;0.10;;;;;;;;;;5052715;28;20060;-79
2024/01/18 13:44:34;;;;;;;0.10;0.10;;;;;;;;;;5048569;28;20050;-80
2024/01/18 13:47:01;;;;;;;0.20;0.20;;;;;;;;;;5047551;28;20441;-79
2024/01/18 13:49:28;;;;;;;0.10;0.10;;;;;;;;;;5055474;28;20049;-80
2024/01/18 13:51:54;;;;;;;0.10;0.10;;;;;;;;;;5053067;28;20140;-78
2024/01/18 13:54:21;;;;;;;0.10;0.10;;;;;;;;;;5037452;28;20061;-78
2024/01/18 13:56:47;;;;;;;0.93;0.88;;;;;;;;;;5059140;28;20052;-78
2024/01/18 13:59:13;;;;;;;0.10;0.10;;;;;;;;;;5054790;28;20084;-79
2024/01/18 14:01:40;;;;;;;0.10;0.10;;;;;;;;;;5043508;28;20053;-79
2024/01/18 14:04:07;;;;;;;0.10;0.10;;;;;;;;;;5039146;28;20065;-79
2024/01/18 14:06:33;;;;;;;0.10;0.10;;;;;;;;;;5054209;28;20106;-79
2024/01/18 14:09:00;;;;;;;0.10;0.10;;;;;;;;;;5054465;28;20048;-79
2024/01/18 14:11:26;;;;;;;0.10;0.10;;;;;;;;;;5054354;28;20061;-79
2024/01/18 14:13:53;;;;;;;0.10;0.10;;;;;;;;;;5047668;28;20103;-81
2024/01/18 14:16:19;;;;;;;0.10;0.10;;;;;;;;;;5036074;28;20061;-79
2024/01/18 14:18:47;;;;;;;0.10;0.10;;;;;;;;;;5048075;28;20053;-79
2024/01/18 14:21:14;;;;;;;0.10;0.10;;;;;;;;;;5042227;28;20052;-79
2024/01/18 14:23:40;;;;;;;0.10;0.10;;;;;;;;;;5056774;28;20096;-79
2024/01/18 14:26:07;;;;;;;0.10;0.10;;;;;;;;;;5049304;28;20147;-79
2024/01/18 14:28:33;;;;;;;0.10;0.10;;;;;;;;;;5042642;28;20081;-79
2024/01/18 14:31:01;;;;;;;0.10;0.10;;;;;;;;;;5060154;28;20049;-78
2024/01/18 14:33:28;;;;;;;0.10;0.10;;;;;;;;;;5046822;28;20085;-79
2024/01/18 14:35:55;;;;;;;0.10;0.10;;;;;;;;;;5041861;28;20053;-79
2024/01/18 14:38:21;;;;;;;0.10;0.10;;;;;;;;;;5051642;28;20058;-79
2024/01/18 14:40:47;;;;;;;0.10;0.10;;;;;;;;;;5045697;28;20082;-79
2024/01/18 14:43:14;;;;;;;0.10;0.10;;;;;;;;;;5033236;28;20530;-79
2024/01/18 14:45:41;;;;;;;0.10;0.10;;;;;;;;;;5041542;28;20069;-80
2024/01/18 14:48:09;;;;;;;0.10;0.10;;;;;;;;;;5046053;28;20069;-80